sensor_id;sensor_type;location;lat;lon;timestamp;P1;durP1;ratioP1;P2;durP2;ratioP2
49109;SDS011;34921;52.320;16.142;2023-03-01T00:01:33;289.68;;;121.77;;
49109;SDS011;34921;52.320;16.142;2023-03-01T00:04:01;275.10;;;112.08;;
49109;SDS011;34921;52.320;16.142;2023-03-01T00:06:29;269.52;;;111.40;;
49109;SDS011;34921;52.320;16.142;2023-03-01T00:08:57;271.33;;;112.50;;
49109;SDS011;34921;52.320;16.142;2023-03-01T00:11:26;258.45;;;111.10;;
49109;SDS011;34921;52.320;16.142;2023-03-01T00:13:56;255.70;;;107.93;;
49109;SDS011;34921;52.320;16.142;2023-03-01T00:16:26;250.30;;;107.77;;
49109;SDS011;34921;52.320;16.142;2023-03-01T00:18:58;251.50;;;103.77;;
49109;SDS011;34921;52.320;16.142;2023-03-01T00:21:27;244.37;;;103.35;;
49109;SDS011;34921;52.320;16.142;2023-03-01T00:23:55;233.47;;;97.25;;
49109;SDS011;34921;52.320;16.142;2023-03-01T00:26:24;228.00;;;92.72;;
49109;SDS011;34921;52.320;16.142;2023-03-01T00:28:53;240.12;;;97.90;;
49109;SDS011;34921;52.320;16.142;2023-03-01T00:31:23;222.93;;;93.30;;
49109;SDS011;34921;52.320;16.142;2023-03-01T00:33:53;224.53;;;92.77;;
49109;SDS011;34921;52.320;16.142;2023-03-01T00:36:27;233.87;;;96.10;;
49109;SDS011;34921;52.320;16.142;2023-03-01T00:38:58;241.10;;;95.60;;
49109;SDS011;34921;52.320;16.142;2023-03-01T00:41:26;229.03;;;95.15;;
49109;SDS011;34921;52.320;16.142;2023-03-01T00:43:55;224.65;;;92.35;;
49109;SDS011;34921;52.320;16.142;2023-03-01T00:46:24;234.57;;;94.87;;
49109;SDS011;34921;52.320;16.142;2023-03-01T00:48:53;234.10;;;93.05;;
49109;SDS011;34921;52.320;16.142;2023-03-01T00:51:23;235.35;;;95.53;;
49109;SDS011;34921;52.320;16.142;2023-03-01T00:53:53;226.60;;;90.00;;
49109;SDS011;34921;52.320;16.142;2023-03-01T00:56:23;225.30;;;89.13;;
49109;SDS011;34921;52.320;16.142;2023-03-01T00:58:51;237.27;;;92.80;;
49109;SDS011;34921;52.320;16.142;2023-03-01T01:01:20;229.87;;;90.90;;
49109;SDS011;34921;52.320;16.142;2023-03-01T01:03:51;222.45;;;87.45;;
49109;SDS011;34921;52.320;16.142;2023-03-01T01:08:50;218.75;;;86.55;;
49109;SDS011;34921;52.320;16.142;2023-03-01T01:11:19;210.70;;;83.27;;
49109;SDS011;34921;52.320;16.142;2023-03-01T01:13:47;204.28;;;82.27;;
49109;SDS011;34921;52.320;16.142;2023-03-01T01:16:16;197.15;;;83.27;;
49109;SDS011;34921;52.320;16.142;2023-03-01T01:18:48;187.85;;;79.82;;
49109;SDS011;34921;52.320;16.142;2023-03-01T01:21:17;206.02;;;83.52;;
49109;SDS011;34921;52.320;16.142;2023-03-01T01:23:47;185.73;;;79.35;;
49109;SDS011;34921;52.320;16.142;2023-03-01T01:26:20;196.15;;;82.67;;
49109;SDS011;34921;52.320;16.142;2023-03-01T01:28:48;193.93;;;79.03;;
49109;SDS011;34921;52.320;16.142;2023-03-01T01:31:17;195.18;;;79.55;;
49109;SDS011;34921;52.320;16.142;2023-03-01T01:33:45;187.03;;;77.08;;
49109;SDS011;34921;52.320;16.142;2023-03-01T01:36:13;191.95;;;77.80;;
49109;SDS011;34921;52.320;16.142;2023-03-01T01:38:41;188.32;;;75.70;;
49109;SDS011;34921;52.320;16.142;2023-03-01T01:41:12;180.72;;;74.62;;
49109;SDS011;34921;52.320;16.142;2023-03-01T01:43:45;169.95;;;73.17;;
49109;SDS011;34921;52.320;16.142;2023-03-01T01:51:43;179.20;;;71.97;;
49109;SDS011;34921;52.320;16.142;2023-03-01T01:54:16;173.00;;;73.00;;
49109;SDS011;34921;52.320;16.142;2023-03-01T01:56:49;179.20;;;71.57;;
49109;SDS011;34921;52.320;16.142;2023-03-01T01:59:28;175.45;;;72.05;;
49109;SDS011;34921;52.320;16.142;2023-03-01T02:01:56;185.70;;;73.80;;
49109;SDS011;34921;52.320;16.142;2023-03-01T02:04:27;177.00;;;71.45;;
49109;SDS011;34921;52.320;16.142;2023-03-01T02:07:01;175.93;;;71.65;;
49109;SDS011;34921;52.320;16.142;2023-03-01T02:09:32;175.40;;;71.60;;
49109;SDS011;34921;52.320;16.142;2023-03-01T02:12:02;176.75;;;71.35;;
49109;SDS011;34921;52.320;16.142;2023-03-01T02:14:31;164.88;;;68.15;;
49109;SDS011;34921;52.320;16.142;2023-03-01T02:16:59;177.38;;;70.78;;
49109;SDS011;34921;52.320;16.142;2023-03-01T02:19:39;169.55;;;69.30;;
49109;SDS011;34921;52.320;16.142;2023-03-01T02:22:28;173.32;;;70.15;;
49109;SDS011;34921;52.320;16.142;2023-03-01T02:30:21;165.82;;;66.22;;
49109;SDS011;34921;52.320;16.142;2023-03-01T02:32:51;159.57;;;64.00;;
49109;SDS011;34921;52.320;16.142;2023-03-01T02:35:20;173.20;;;67.92;;
49109;SDS011;34921;52.320;16.142;2023-03-01T02:37:48;155.52;;;64.87;;
49109;SDS011;34921;52.320;16.142;2023-03-01T02:40:17;160.60;;;64.67;;
49109;SDS011;34921;52.320;16.142;2023-03-01T02:42:54;145.73;;;64.17;;
49109;SDS011;34921;52.320;16.142;2023-03-01T02:45:26;154.03;;;62.57;;
49109;SDS011;34921;52.320;16.142;2023-03-01T02:47:55;145.45;;;61.05;;
49109;SDS011;34921;52.320;16.142;2023-03-01T02:53:14;149.57;;;61.90;;
49109;SDS011;34921;52.320;16.142;2023-03-01T02:55:44;141.03;;;59.70;;
49109;SDS011;34921;52.320;16.142;2023-03-01T02:58:12;146.47;;;58.95;;
49109;SDS011;34921;52.320;16.142;2023-03-01T03:00:40;131.50;;;55.90;;
49109;SDS011;34921;52.320;16.142;2023-03-01T03:03:14;130.57;;;53.03;;
49109;SDS011;34921;52.320;16.142;2023-03-01T03:05:43;135.90;;;55.45;;
49109;SDS011;34921;52.320;16.142;2023-03-01T03:08:11;127.47;;;55.65;;
49109;SDS011;34921;52.320;16.142;2023-03-01T03:10:40;133.52;;;54.18;;
49109;SDS011;34921;52.320;16.142;2023-03-01T03:13:09;135.93;;;53.28;;
49109;SDS011;34921;52.320;16.142;2023-03-01T03:15:40;125.87;;;52.53;;
49109;SDS011;34921;52.320;16.142;2023-03-01T03:18:11;130.65;;;54.38;;
49109;SDS011;34921;52.320;16.142;2023-03-01T03:20:40;123.47;;;51.93;;
49109;SDS011;34921;52.320;16.142;2023-03-01T03:23:09;126.15;;;53.60;;
49109;SDS011;34921;52.320;16.142;2023-03-01T03:25:37;122.80;;;50.70;;
49109;SDS011;34921;52.320;16.142;2023-03-01T03:28:06;129.45;;;52.85;;
49109;SDS011;34921;52.320;16.142;2023-03-01T03:30:38;122.67;;;50.83;;
49109;SDS011;34921;52.320;16.142;2023-03-01T03:33:08;121.47;;;51.58;;
49109;SDS011;34921;52.320;16.142;2023-03-01T03:38:09;136.30;;;54.53;;
49109;SDS011;34921;52.320;16.142;2023-03-01T03:40:44;136.00;;;54.77;;
49109;SDS011;34921;52.320;16.142;2023-03-01T03:43:18;146.13;;;56.65;;
49109;SDS011;34921;52.320;16.142;2023-03-01T03:45:48;149.30;;;58.37;;
49109;SDS011;34921;52.320;16.142;2023-03-01T03:48:17;167.53;;;64.87;;
49109;SDS011;34921;52.320;16.142;2023-03-01T03:50:50;164.00;;;63.92;;
49109;SDS011;34921;52.320;16.142;2023-03-01T03:53:19;163.03;;;64.67;;
49109;SDS011;34921;52.320;16.142;2023-03-01T03:55:48;160.47;;;64.23;;
49109;SDS011;34921;52.320;16.142;2023-03-01T03:58:17;148.22;;;61.65;;
49109;SDS011;34921;52.320;16.142;2023-03-01T04:00:48;167.90;;;68.30;;
49109;SDS011;34921;52.320;16.142;2023-03-01T04:03:19;158.40;;;65.28;;
49109;SDS011;34921;52.320;16.142;2023-03-01T04:05:47;149.75;;;66.02;;
49109;SDS011;34921;52.320;16.142;2023-03-01T04:08:19;164.03;;;68.57;;
49109;SDS011;34921;52.320;16.142;2023-03-01T04:10:50;154.70;;;67.27;;
49109;SDS011;34921;52.320;16.142;2023-03-01T04:13:20;158.70;;;67.53;;
49109;SDS011;34921;52.320;16.142;2023-03-01T04:15:50;154.23;;;63.05;;
49109;SDS011;34921;52.320;16.142;2023-03-01T04:18:22;148.57;;;62.53;;
49109;SDS011;34921;52.320;16.142;2023-03-01T04:20:51;121.20;;;50.60;;
49109;SDS011;34921;52.320;16.142;2023-03-01T04:23:22;135.97;;;60.33;;
49109;SDS011;34921;52.320;16.142;2023-03-01T04:25:57;137.62;;;58.00;;
49109;SDS011;34921;52.320;16.142;2023-03-01T04:28:30;142.75;;;59.18;;
49109;SDS011;34921;52.320;16.142;2023-03-01T04:31:07;143.50;;;60.23;;
49109;SDS011;34921;52.320;16.142;2023-03-01T04:33:43;124.40;;;48.33;;
49109;SDS011;34921;52.320;16.142;2023-03-01T04:36:16;126.80;;;54.75;;
49109;SDS011;34921;52.320;16.142;2023-03-01T04:38:44;130.30;;;54.33;;
49109;SDS011;34921;52.320;16.142;2023-03-01T04:41:16;128.57;;;55.95;;
49109;SDS011;34921;52.320;16.142;2023-03-01T04:43:45;124.77;;;53.50;;
49109;SDS011;34921;52.320;16.142;2023-03-01T04:46:15;131.87;;;56.83;;
49109;SDS011;34921;52.320;16.142;2023-03-01T04:48:44;140.17;;;58.03;;
49109;SDS011;34921;52.320;16.142;2023-03-01T04:53:43;137.45;;;56.55;;
49109;SDS011;34921;52.320;16.142;2023-03-01T04:56:12;133.90;;;59.13;;
49109;SDS011;34921;52.320;16.142;2023-03-01T04:58:41;144.22;;;60.45;;
49109;SDS011;34921;52.320;16.142;2023-03-01T05:01:10;137.45;;;59.77;;
49109;SDS011;34921;52.320;16.142;2023-03-01T05:03:43;144.60;;;59.33;;
49109;SDS011;34921;52.320;16.142;2023-03-01T05:06:12;138.60;;;59.87;;
49109;SDS011;34921;52.320;16.142;2023-03-01T05:08:41;160.03;;;62.30;;
49109;SDS011;34921;52.320;16.142;2023-03-01T05:11:10;157.07;;;66.63;;
49109;SDS011;34921;52.320;16.142;2023-03-01T05:13:38;167.57;;;70.50;;
49109;SDS011;34921;52.320;16.142;2023-03-01T05:16:07;179.70;;;75.37;;
49109;SDS011;34921;52.320;16.142;2023-03-01T05:18:39;158.18;;;66.02;;
49109;SDS011;34921;52.320;16.142;2023-03-01T05:21:09;158.87;;;70.70;;
49109;SDS011;34921;52.320;16.142;2023-03-01T05:23:38;169.20;;;81.87;;
49109;SDS011;34921;52.320;16.142;2023-03-01T05:26:07;192.72;;;96.00;;
49109;SDS011;34921;52.320;16.142;2023-03-01T05:28:35;190.62;;;90.72;;
49109;SDS011;34921;52.320;16.142;2023-03-01T05:31:05;166.50;;;78.75;;
49109;SDS011;34921;52.320;16.142;2023-03-01T05:33:37;169.07;;;77.57;;
49109;SDS011;34921;52.320;16.142;2023-03-01T05:36:06;169.62;;;73.60;;
49109;SDS011;34921;52.320;16.142;2023-03-01T05:38:37;165.30;;;75.67;;
49109;SDS011;34921;52.320;16.142;2023-03-01T05:41:04;175.45;;;80.67;;
49109;SDS011;34921;52.320;16.142;2023-03-01T05:43:32;172.07;;;74.77;;
49109;SDS011;34921;52.320;16.142;2023-03-01T05:46:01;169.57;;;72.37;;
49109;SDS011;34921;52.320;16.142;2023-03-01T05:48:29;169.37;;;72.03;;
49109;SDS011;34921;52.320;16.142;2023-03-01T05:50:57;170.32;;;71.45;;
49109;SDS011;34921;52.320;16.142;2023-03-01T05:53:27;158.60;;;71.82;;
49109;SDS011;34921;52.320;16.142;2023-03-01T05:55:55;165.18;;;71.15;;
49109;SDS011;34921;52.320;16.142;2023-03-01T05:58:23;171.22;;;69.82;;
49109;SDS011;34921;52.320;16.142;2023-03-01T06:00:51;160.93;;;67.42;;
49109;SDS011;34921;52.320;16.142;2023-03-01T06:03:19;166.35;;;65.78;;
49109;SDS011;34921;52.320;16.142;2023-03-01T06:05:47;149.42;;;62.13;;
49109;SDS011;34921;52.320;16.142;2023-03-01T06:08:15;162.80;;;65.60;;
49109;SDS011;34921;52.320;16.142;2023-03-01T06:10:43;157.93;;;63.83;;
49109;SDS011;34921;52.320;16.142;2023-03-01T06:13:11;153.40;;;63.63;;
49109;SDS011;34921;52.320;16.142;2023-03-01T06:15:39;157.22;;;63.05;;
49109;SDS011;34921;52.320;16.142;2023-03-01T06:18:07;145.35;;;59.65;;
49109;SDS011;34921;52.320;16.142;2023-03-01T06:20:35;154.10;;;60.48;;
49109;SDS011;34921;52.320;16.142;2023-03-01T06:23:03;154.15;;;62.25;;
49109;SDS011;34921;52.320;16.142;2023-03-01T06:25:31;150.93;;;62.03;;
49109;SDS011;34921;52.320;16.142;2023-03-01T06:27:59;145.55;;;60.98;;
49109;SDS011;34921;52.320;16.142;2023-03-01T06:30:27;154.10;;;62.33;;
49109;SDS011;34921;52.320;16.142;2023-03-01T06:32:55;150.07;;;60.07;;
49109;SDS011;34921;52.320;16.142;2023-03-01T06:35:28;147.95;;;61.08;;
49109;SDS011;34921;52.320;16.142;2023-03-01T06:37:59;145.28;;;58.55;;
49109;SDS011;34921;52.320;16.142;2023-03-01T06:40:28;137.52;;;57.73;;
49109;SDS011;34921;52.320;16.142;2023-03-01T06:42:58;146.62;;;59.35;;
49109;SDS011;34921;52.320;16.142;2023-03-01T06:45:26;145.82;;;63.38;;
49109;SDS011;34921;52.320;16.142;2023-03-01T06:48:01;159.20;;;63.20;;
49109;SDS011;34921;52.320;16.142;2023-03-01T06:50:31;142.60;;;62.35;;
49109;SDS011;34921;52.320;16.142;2023-03-01T06:52:59;178.85;;;70.47;;
49109;SDS011;34921;52.320;16.142;2023-03-01T06:55:27;173.17;;;70.15;;
49109;SDS011;34921;52.320;16.142;2023-03-01T06:57:58;183.17;;;77.90;;
49109;SDS011;34921;52.320;16.142;2023-03-01T07:00:27;211.53;;;86.10;;
49109;SDS011;34921;52.320;16.142;2023-03-01T07:02:58;209.62;;;89.35;;
49109;SDS011;34921;52.320;16.142;2023-03-01T07:05:27;234.00;;;108.43;;
49109;SDS011;34921;52.320;16.142;2023-03-01T07:07:55;249.30;;;110.65;;
49109;SDS011;34921;52.320;16.142;2023-03-01T07:10:23;251.22;;;112.75;;
49109;SDS011;34921;52.320;16.142;2023-03-01T07:12:55;240.17;;;112.50;;
49109;SDS011;34921;52.320;16.142;2023-03-01T07:15:26;264.42;;;116.85;;
49109;SDS011;34921;52.320;16.142;2023-03-01T07:17:55;241.88;;;104.92;;
49109;SDS011;34921;52.320;16.142;2023-03-01T07:20:24;238.03;;;106.00;;
49109;SDS011;34921;52.320;16.142;2023-03-01T07:22:53;213.25;;;100.27;;
49109;SDS011;34921;52.320;16.142;2023-03-01T07:25:21;216.75;;;100.75;;
49109;SDS011;34921;52.320;16.142;2023-03-01T07:27:50;224.82;;;102.47;;
49109;SDS011;34921;52.320;16.142;2023-03-01T07:30:20;221.15;;;102.00;;
49109;SDS011;34921;52.320;16.142;2023-03-01T07:32:48;230.52;;;100.60;;
49109;SDS011;34921;52.320;16.142;2023-03-01T07:35:16;198.87;;;95.10;;
49109;SDS011;34921;52.320;16.142;2023-03-01T07:37:44;174.00;;;79.32;;
49109;SDS011;34921;52.320;16.142;2023-03-01T07:40:12;207.30;;;86.13;;
49109;SDS011;34921;52.320;16.142;2023-03-01T07:42:40;181.82;;;77.10;;
49109;SDS011;34921;52.320;16.142;2023-03-01T07:45:09;162.88;;;74.03;;
49109;SDS011;34921;52.320;16.142;2023-03-01T07:47:37;168.87;;;76.87;;
49109;SDS011;34921;52.320;16.142;2023-03-01T07:50:05;177.27;;;79.82;;
49109;SDS011;34921;52.320;16.142;2023-03-01T07:52:33;169.02;;;76.20;;
49109;SDS011;34921;52.320;16.142;2023-03-01T07:55:01;154.63;;;72.23;;
49109;SDS011;34921;52.320;16.142;2023-03-01T07:57:29;139.85;;;64.82;;
49109;SDS011;34921;52.320;16.142;2023-03-01T07:59:57;131.82;;;60.05;;
49109;SDS011;34921;52.320;16.142;2023-03-01T08:02:25;143.47;;;62.33;;
49109;SDS011;34921;52.320;16.142;2023-03-01T08:04:53;137.97;;;63.28;;
49109;SDS011;34921;52.320;16.142;2023-03-01T08:07:21;145.03;;;64.60;;
49109;SDS011;34921;52.320;16.142;2023-03-01T08:09:49;119.40;;;55.12;;
49109;SDS011;34921;52.320;16.142;2023-03-01T08:12:17;120.43;;;55.77;;
49109;SDS011;34921;52.320;16.142;2023-03-01T08:14:45;103.13;;;49.23;;
49109;SDS011;34921;52.320;16.142;2023-03-01T08:17:13;101.97;;;45.93;;
49109;SDS011;34921;52.320;16.142;2023-03-01T08:19:42;87.90;;;41.90;;
49109;SDS011;34921;52.320;16.142;2023-03-01T08:22:10;98.47;;;46.18;;
49109;SDS011;34921;52.320;16.142;2023-03-01T08:24:38;95.40;;;47.00;;
49109;SDS011;34921;52.320;16.142;2023-03-01T08:27:06;101.62;;;48.38;;
49109;SDS011;34921;52.320;16.142;2023-03-01T08:29:34;99.10;;;47.87;;
49109;SDS011;34921;52.320;16.142;2023-03-01T08:32:02;101.10;;;47.65;;
49109;SDS011;34921;52.320;16.142;2023-03-01T08:34:30;87.60;;;42.65;;
49109;SDS011;34921;52.320;16.142;2023-03-01T08:36:58;73.70;;;38.15;;
49109;SDS011;34921;52.320;16.142;2023-03-01T08:39:26;77.15;;;38.20;;
49109;SDS011;34921;52.320;16.142;2023-03-01T08:41:54;83.13;;;42.00;;
49109;SDS011;34921;52.320;16.142;2023-03-01T08:44:22;84.07;;;44.40;;
49109;SDS011;34921;52.320;16.142;2023-03-01T08:46:50;81.42;;;42.15;;
49109;SDS011;34921;52.320;16.142;2023-03-01T08:49:20;85.87;;;43.97;;
49109;SDS011;34921;52.320;16.142;2023-03-01T08:51:48;82.60;;;41.23;;
49109;SDS011;34921;52.320;16.142;2023-03-01T08:54:17;84.17;;;43.00;;
49109;SDS011;34921;52.320;16.142;2023-03-01T08:56:47;74.70;;;37.53;;
49109;SDS011;34921;52.320;16.142;2023-03-01T08:59:16;74.97;;;39.95;;
49109;SDS011;34921;52.320;16.142;2023-03-01T09:01:44;83.60;;;40.12;;
49109;SDS011;34921;52.320;16.142;2023-03-01T09:04:12;68.50;;;34.33;;
49109;SDS011;34921;52.320;16.142;2023-03-01T09:06:40;55.07;;;30.77;;
49109;SDS011;34921;52.320;16.142;2023-03-01T09:09:16;66.05;;;33.70;;
49109;SDS011;34921;52.320;16.142;2023-03-01T09:11:45;56.90;;;30.43;;
49109;SDS011;34921;52.320;16.142;2023-03-01T09:14:13;43.85;;;23.52;;
49109;SDS011;34921;52.320;16.142;2023-03-01T09:16:42;30.90;;;17.12;;
49109;SDS011;34921;52.320;16.142;2023-03-01T09:19:10;25.75;;;15.10;;
49109;SDS011;34921;52.320;16.142;2023-03-01T09:21:38;28.23;;;15.87;;
49109;SDS011;34921;52.320;16.142;2023-03-01T09:24:12;30.02;;;16.12;;
49109;SDS011;34921;52.320;16.142;2023-03-01T09:26:41;22.60;;;11.33;;
49109;SDS011;34921;52.320;16.142;2023-03-01T09:29:09;18.80;;;11.03;;
49109;SDS011;34921;52.320;16.142;2023-03-01T09:31:37;21.25;;;11.38;;
49109;SDS011;34921;52.320;16.142;2023-03-01T09:34:06;20.37;;;11.00;;
49109;SDS011;34921;52.320;16.142;2023-03-01T09:36:35;14.20;;;8.08;;
49109;SDS011;34921;52.320;16.142;2023-03-01T09:39:03;14.38;;;8.40;;
49109;SDS011;34921;52.320;16.142;2023-03-01T09:46:55;15.25;;;8.75;;
49109;SDS011;34921;52.320;16.142;2023-03-01T09:49:26;16.32;;;8.73;;
49109;SDS011;34921;52.320;16.142;2023-03-01T09:54:29;17.25;;;8.73;;
49109;SDS011;34921;52.320;16.142;2023-03-01T10:04:53;11.55;;;6.35;;
49109;SDS011;34921;52.320;16.142;2023-03-01T10:07:36;10.38;;;6.45;;
49109;SDS011;34921;52.320;16.142;2023-03-01T10:10:15;13.83;;;7.62;;
49109;SDS011;34921;52.320;16.142;2023-03-01T10:13:02;12.43;;;6.20;;
49109;SDS011;34921;52.320;16.142;2023-03-01T10:15:38;11.75;;;6.53;;
49109;SDS011;34921;52.320;16.142;2023-03-01T10:18:31;26.70;;;17.20;;
49109;SDS011;34921;52.320;16.142;2023-03-01T10:21:02;16.85;;;8.43;;
49109;SDS011;34921;52.320;16.142;2023-03-01T10:23:32;15.43;;;8.68;;
49109;SDS011;34921;52.320;16.142;2023-03-01T10:31:22;10.88;;;6.20;;
49109;SDS011;34921;52.320;16.142;2023-03-01T10:33:56;11.93;;;6.33;;
49109;SDS011;34921;52.320;16.142;2023-03-01T10:36:26;11.43;;;6.57;;
49109;SDS011;34921;52.320;16.142;2023-03-01T10:38:55;19.32;;;10.23;;
49109;SDS011;34921;52.320;16.142;2023-03-01T10:41:25;11.33;;;6.40;;
49109;SDS011;34921;52.320;16.142;2023-03-01T10:43:56;9.60;;;5.62;;
49109;SDS011;34921;52.320;16.142;2023-03-01T10:49:12;66.82;;;41.10;;
49109;SDS011;34921;52.320;16.142;2023-03-01T10:51:43;22.98;;;12.45;;
49109;SDS011;34921;52.320;16.142;2023-03-01T10:54:16;10.40;;;6.23;;
49109;SDS011;34921;52.320;16.142;2023-03-01T10:56:59;10.63;;;5.90;;
49109;SDS011;34921;52.320;16.142;2023-03-01T11:05:16;12.20;;;6.33;;
49109;SDS011;34921;52.320;16.142;2023-03-01T11:07:48;16.82;;;7.08;;
49109;SDS011;34921;52.320;16.142;2023-03-01T11:10:23;13.20;;;7.25;;
49109;SDS011;34921;52.320;16.142;2023-03-01T11:13:06;11.90;;;6.67;;
49109;SDS011;34921;52.320;16.142;2023-03-01T11:15:35;14.68;;;6.85;;
49109;SDS011;34921;52.320;16.142;2023-03-01T11:18:03;12.98;;;6.97;;
49109;SDS011;34921;52.320;16.142;2023-03-01T11:20:35;11.35;;;6.12;;
49109;SDS011;34921;52.320;16.142;2023-03-01T11:23:04;12.85;;;6.65;;
49109;SDS011;34921;52.320;16.142;2023-03-01T11:25:37;12.18;;;7.67;;
49109;SDS011;34921;52.320;16.142;2023-03-01T11:28:11;11.05;;;5.95;;
49109;SDS011;34921;52.320;16.142;2023-03-01T11:38:43;13.70;;;7.10;;
49109;SDS011;34921;52.320;16.142;2023-03-01T11:41:18;14.58;;;8.08;;
49109;SDS011;34921;52.320;16.142;2023-03-01T11:49:12;12.63;;;6.65;;
49109;SDS011;34921;52.320;16.142;2023-03-01T11:58:04;12.47;;;6.40;;
49109;SDS011;34921;52.320;16.142;2023-03-01T12:08:54;10.50;;;5.62;;
49109;SDS011;34921;52.320;16.142;2023-03-01T12:22:30;31.35;;;17.20;;
49109;SDS011;34921;52.320;16.142;2023-03-01T12:33:12;8.68;;;5.10;;
49109;SDS011;34921;52.320;16.142;2023-03-01T12:35:47;14.55;;;8.13;;
49109;SDS011;34921;52.320;16.142;2023-03-01T12:38:37;11.10;;;6.40;;
49109;SDS011;34921;52.320;16.142;2023-03-01T12:44:22;9.63;;;5.35;;
49109;SDS011;34921;52.320;16.142;2023-03-01T12:50:14;9.30;;;5.35;;
49109;SDS011;34921;52.320;16.142;2023-03-01T13:06:37;7.15;;;4.35;;
49109;SDS011;34921;52.320;16.142;2023-03-01T13:09:26;7.95;;;4.35;;
49109;SDS011;34921;52.320;16.142;2023-03-01T13:17:59;9.18;;;4.78;;
49109;SDS011;34921;52.320;16.142;2023-03-01T13:33:55;7.03;;;3.92;;
49109;SDS011;34921;52.320;16.142;2023-03-01T13:38:58;25.27;;;11.73;;
49109;SDS011;34921;52.320;16.142;2023-03-01T13:46:52;6.20;;;3.87;;
49109;SDS011;34921;52.320;16.142;2023-03-01T13:49:22;8.15;;;4.97;;
49109;SDS011;34921;52.320;16.142;2023-03-01T13:51:52;8.93;;;4.27;;
49109;SDS011;34921;52.320;16.142;2023-03-01T13:54:31;9.15;;;4.95;;
49109;SDS011;34921;52.320;16.142;2023-03-01T13:57:01;8.70;;;4.60;;
49109;SDS011;34921;52.320;16.142;2023-03-01T13:59:29;8.03;;;4.27;;
49109;SDS011;34921;52.320;16.142;2023-03-01T14:01:59;6.08;;;3.98;;
49109;SDS011;34921;52.320;16.142;2023-03-01T14:04:28;9.53;;;4.67;;
49109;SDS011;34921;52.320;16.142;2023-03-01T14:09:41;9.73;;;5.07;;
49109;SDS011;34921;52.320;16.142;2023-03-01T14:20:48;9.17;;;4.97;;
49109;SDS011;34921;52.320;16.142;2023-03-01T14:23:21;7.85;;;3.98;;
49109;SDS011;34921;52.320;16.142;2023-03-01T14:28:28;7.47;;;3.75;;
49109;SDS011;34921;52.320;16.142;2023-03-01T14:30:58;7.70;;;3.20;;
49109;SDS011;34921;52.320;16.142;2023-03-01T14:36:01;95.05;;;47.55;;
49109;SDS011;34921;52.320;16.142;2023-03-01T14:38:41;102.10;;;48.70;;
49109;SDS011;34921;52.320;16.142;2023-03-01T14:43:46;55.87;;;31.73;;
49109;SDS011;34921;52.320;16.142;2023-03-01T14:46:20;32.47;;;19.07;;
49109;SDS011;34921;52.320;16.142;2023-03-01T14:48:53;10.48;;;6.72;;
49109;SDS011;34921;52.320;16.142;2023-03-01T14:51:24;19.55;;;11.75;;
49109;SDS011;34921;52.320;16.142;2023-03-01T14:53:52;16.23;;;10.60;;
49109;SDS011;34921;52.320;16.142;2023-03-01T14:56:20;20.77;;;14.07;;
49109;SDS011;34921;52.320;16.142;2023-03-01T14:58:52;37.90;;;24.07;;
49109;SDS011;34921;52.320;16.142;2023-03-01T15:01:26;19.40;;;12.55;;
49109;SDS011;34921;52.320;16.142;2023-03-01T15:03:55;24.75;;;15.53;;
49109;SDS011;34921;52.320;16.142;2023-03-01T15:06:24;15.58;;;9.70;;
49109;SDS011;34921;52.320;16.142;2023-03-01T15:08:53;31.65;;;21.57;;
49109;SDS011;34921;52.320;16.142;2023-03-01T15:11:28;13.58;;;9.05;;
49109;SDS011;34921;52.320;16.142;2023-03-01T15:13:58;11.20;;;6.00;;
49109;SDS011;34921;52.320;16.142;2023-03-01T15:16:27;13.33;;;10.73;;
49109;SDS011;34921;52.320;16.142;2023-03-01T15:19:04;32.33;;;18.17;;
49109;SDS011;34921;52.320;16.142;2023-03-01T15:21:35;22.58;;;14.93;;
49109;SDS011;34921;52.320;16.142;2023-03-01T15:24:16;30.17;;;14.23;;
49109;SDS011;34921;52.320;16.142;2023-03-01T15:26:52;32.00;;;18.87;;
49109;SDS011;34921;52.320;16.142;2023-03-01T15:29:25;17.57;;;11.68;;
49109;SDS011;34921;52.320;16.142;2023-03-01T15:31:58;16.70;;;13.97;;
49109;SDS011;34921;52.320;16.142;2023-03-01T15:34:30;77.20;;;52.03;;
49109;SDS011;34921;52.320;16.142;2023-03-01T15:37:03;44.93;;;33.47;;
49109;SDS011;34921;52.320;16.142;2023-03-01T15:45:06;77.87;;;53.30;;
49109;SDS011;34921;52.320;16.142;2023-03-01T15:47:35;45.43;;;30.12;;
49109;SDS011;34921;52.320;16.142;2023-03-01T15:50:17;38.60;;;29.43;;
49109;SDS011;34921;52.320;16.142;2023-03-01T15:52:48;36.48;;;27.35;;
49109;SDS011;34921;52.320;16.142;2023-03-01T15:55:19;22.35;;;13.95;;
49109;SDS011;34921;52.320;16.142;2023-03-01T15:57:48;18.25;;;10.25;;
49109;SDS011;34921;52.320;16.142;2023-03-01T16:00:17;36.68;;;18.85;;
49109;SDS011;34921;52.320;16.142;2023-03-01T16:02:46;13.50;;;7.87;;
49109;SDS011;34921;52.320;16.142;2023-03-01T16:05:25;12.88;;;7.40;;
49109;SDS011;34921;52.320;16.142;2023-03-01T16:07:55;13.05;;;7.65;;
49109;SDS011;34921;52.320;16.142;2023-03-01T16:10:23;14.28;;;8.55;;
49109;SDS011;34921;52.320;16.142;2023-03-01T16:12:52;16.57;;;10.03;;
49109;SDS011;34921;52.320;16.142;2023-03-01T16:15:21;16.60;;;8.97;;
49109;SDS011;34921;52.320;16.142;2023-03-01T16:17:51;17.03;;;10.87;;
49109;SDS011;34921;52.320;16.142;2023-03-01T16:20:19;16.50;;;9.83;;
49109;SDS011;34921;52.320;16.142;2023-03-01T16:22:47;20.08;;;11.12;;
49109;SDS011;34921;52.320;16.142;2023-03-01T16:25:16;23.10;;;11.22;;
49109;SDS011;34921;52.320;16.142;2023-03-01T16:27:48;16.97;;;10.32;;
49109;SDS011;34921;52.320;16.142;2023-03-01T16:30:18;20.53;;;10.77;;
49109;SDS011;34921;52.320;16.142;2023-03-01T16:32:47;22.20;;;13.67;;
49109;SDS011;34921;52.320;16.142;2023-03-01T16:35:17;26.25;;;13.53;;
49109;SDS011;34921;52.320;16.142;2023-03-01T16:37:48;22.90;;;12.03;;
49109;SDS011;34921;52.320;16.142;2023-03-01T16:40:23;27.32;;;14.23;;
49109;SDS011;34921;52.320;16.142;2023-03-01T16:42:55;31.52;;;14.23;;
49109;SDS011;34921;52.320;16.142;2023-03-01T16:45:27;25.17;;;13.30;;
49109;SDS011;34921;52.320;16.142;2023-03-01T16:48:02;31.95;;;14.70;;
49109;SDS011;34921;52.320;16.142;2023-03-01T16:50:31;32.03;;;14.60;;
49109;SDS011;34921;52.320;16.142;2023-03-01T16:52:59;38.02;;;15.68;;
49109;SDS011;34921;52.320;16.142;2023-03-01T16:55:27;40.40;;;15.53;;
49109;SDS011;34921;52.320;16.142;2023-03-01T16:57:55;31.45;;;15.08;;
49109;SDS011;34921;52.320;16.142;2023-03-01T17:00:23;42.50;;;15.78;;
49109;SDS011;34921;52.320;16.142;2023-03-01T17:02:51;38.40;;;15.35;;
49109;SDS011;34921;52.320;16.142;2023-03-01T17:05:20;38.67;;;15.53;;
49109;SDS011;34921;52.320;16.142;2023-03-01T17:10:19;46.70;;;18.87;;
49109;SDS011;34921;52.320;16.142;2023-03-01T17:12:50;52.80;;;17.35;;
49109;SDS011;34921;52.320;16.142;2023-03-01T17:15:18;53.55;;;18.77;;